sensor_id;sensor_type;location;lat;lon;timestamp;P1;durP1;ratioP1;P2;durP2;ratioP2
8881;SDS011;4477;48.736;9.176;2023-01-19T00:00:26;31.50;;;27.17;;
8881;SDS011;4477;48.736;9.176;2023-01-19T00:02:53;32.33;;;26.77;;
8881;SDS011;4477;48.736;9.176;2023-01-19T00:05:20;32.70;;;26.77;;
8881;SDS011;4477;48.736;9.176;2023-01-19T00:07:47;30.77;;;25.50;;
8881;SDS011;4477;48.736;9.176;2023-01-19T00:10:14;32.03;;;26.80;;
8881;SDS011;4477;48.736;9.176;2023-01-19T00:12:42;31.67;;;25.83;;
8881;SDS011;4477;48.736;9.176;2023-01-19T00:15:10;33.10;;;26.53;;
8881;SDS011;4477;48.736;9.176;2023-01-19T00:17:37;28.93;;;25.23;;
8881;SDS011;4477;48.736;9.176;2023-01-19T00:20:05;33.57;;;25.87;;
8881;SDS011;4477;48.736;9.176;2023-01-19T00:22:33;31.90;;;26.20;;
8881;SDS011;4477;48.736;9.176;2023-01-19T00:25:00;33.90;;;26.20;;
8881;SDS011;4477;48.736;9.176;2023-01-19T00:27:27;30.63;;;25.73;;
8881;SDS011;4477;48.736;9.176;2023-01-19T00:30:00;31.70;;;25.43;;
8881;SDS011;4477;48.736;9.176;2023-01-19T00:32:27;32.20;;;25.80;;
8881;SDS011;4477;48.736;9.176;2023-01-19T00:34:54;29.97;;;25.03;;
8881;SDS011;4477;48.736;9.176;2023-01-19T00:37:20;34.93;;;25.57;;
8881;SDS011;4477;48.736;9.176;2023-01-19T00:39:47;29.57;;;25.87;;
8881;SDS011;4477;48.736;9.176;2023-01-19T00:42:14;28.67;;;24.30;;
8881;SDS011;4477;48.736;9.176;2023-01-19T00:45:00;27.23;;;23.83;;
8881;SDS011;4477;48.736;9.176;2023-01-19T00:47:26;29.83;;;23.87;;
8881;SDS011;4477;48.736;9.176;2023-01-19T00:49:54;29.57;;;24.40;;
8881;SDS011;4477;48.736;9.176;2023-01-19T00:52:20;31.93;;;24.67;;
8881;SDS011;4477;48.736;9.176;2023-01-19T00:54:47;27.47;;;24.30;;
8881;SDS011;4477;48.736;9.176;2023-01-19T00:57:14;32.27;;;25.13;;
8881;SDS011;4477;48.736;9.176;2023-01-19T00:59:43;31.00;;;25.47;;
8881;SDS011;4477;48.736;9.176;2023-01-19T01:02:11;32.37;;;26.20;;
8881;SDS011;4477;48.736;9.176;2023-01-19T01:04:38;32.77;;;25.77;;
8881;SDS011;4477;48.736;9.176;2023-01-19T01:07:05;32.17;;;25.17;;
8881;SDS011;4477;48.736;9.176;2023-01-19T01:09:32;29.87;;;25.67;;
8881;SDS011;4477;48.736;9.176;2023-01-19T01:11:59;30.37;;;25.37;;
8881;SDS011;4477;48.736;9.176;2023-01-19T01:14:25;29.30;;;23.63;;
8881;SDS011;4477;48.736;9.176;2023-01-19T01:16:52;30.87;;;24.63;;
8881;SDS011;4477;48.736;9.176;2023-01-19T01:19:21;31.63;;;24.67;;
8881;SDS011;4477;48.736;9.176;2023-01-19T01:21:48;28.13;;;23.27;;
8881;SDS011;4477;48.736;9.176;2023-01-19T01:24:15;27.77;;;23.20;;
8881;SDS011;4477;48.736;9.176;2023-01-19T01:26:42;29.60;;;23.93;;
8881;SDS011;4477;48.736;9.176;2023-01-19T01:29:10;28.03;;;24.00;;
8881;SDS011;4477;48.736;9.176;2023-01-19T01:31:37;30.47;;;24.43;;
8881;SDS011;4477;48.736;9.176;2023-01-19T01:34:03;27.83;;;23.27;;
8881;SDS011;4477;48.736;9.176;2023-01-19T01:36:32;30.63;;;23.40;;
8881;SDS011;4477;48.736;9.176;2023-01-19T01:39:00;28.00;;;23.93;;
8881;SDS011;4477;48.736;9.176;2023-01-19T01:41:27;28.90;;;24.00;;
8881;SDS011;4477;48.736;9.176;2023-01-19T01:43:54;28.73;;;22.97;;
8881;SDS011;4477;48.736;9.176;2023-01-19T01:46:24;27.37;;;22.83;;
8881;SDS011;4477;48.736;9.176;2023-01-19T01:48:53;29.30;;;23.37;;
8881;SDS011;4477;48.736;9.176;2023-01-19T01:51:27;28.70;;;24.13;;
8881;SDS011;4477;48.736;9.176;2023-01-19T01:54:03;26.90;;;21.93;;
8881;SDS011;4477;48.736;9.176;2023-01-19T01:56:36;28.60;;;22.03;;
8881;SDS011;4477;48.736;9.176;2023-01-19T01:59:05;25.83;;;23.00;;
8881;SDS011;4477;48.736;9.176;2023-01-19T02:01:34;29.97;;;22.60;;
8881;SDS011;4477;48.736;9.176;2023-01-19T02:04:19;28.03;;;22.63;;
8881;SDS011;4477;48.736;9.176;2023-01-19T02:06:47;29.63;;;22.97;;
8881;SDS011;4477;48.736;9.176;2023-01-19T02:09:33;27.03;;;21.50;;
8881;SDS011;4477;48.736;9.176;2023-01-19T02:12:20;25.90;;;21.60;;
8881;SDS011;4477;48.736;9.176;2023-01-19T02:15:05;29.23;;;22.27;;
8881;SDS011;4477;48.736;9.176;2023-01-19T02:17:41;26.43;;;22.47;;
8881;SDS011;4477;48.736;9.176;2023-01-19T02:20:08;25.83;;;22.43;;
8881;SDS011;4477;48.736;9.176;2023-01-19T02:22:38;28.33;;;23.40;;
8881;SDS011;4477;48.736;9.176;2023-01-19T02:25:11;26.67;;;22.83;;
8881;SDS011;4477;48.736;9.176;2023-01-19T02:27:39;28.40;;;22.33;;
8881;SDS011;4477;48.736;9.176;2023-01-19T02:30:07;27.47;;;24.47;;
8881;SDS011;4477;48.736;9.176;2023-01-19T02:32:36;29.93;;;24.30;;
8881;SDS011;4477;48.736;9.176;2023-01-19T02:35:03;31.07;;;24.57;;
8881;SDS011;4477;48.736;9.176;2023-01-19T02:37:30;28.20;;;23.37;;
8881;SDS011;4477;48.736;9.176;2023-01-19T02:40:01;29.70;;;24.30;;
8881;SDS011;4477;48.736;9.176;2023-01-19T02:42:33;31.27;;;24.43;;
8881;SDS011;4477;48.736;9.176;2023-01-19T02:45:03;30.63;;;24.87;;
8881;SDS011;4477;48.736;9.176;2023-01-19T02:47:36;32.87;;;25.67;;
8881;SDS011;4477;48.736;9.176;2023-01-19T02:50:04;33.40;;;25.97;;
8881;SDS011;4477;48.736;9.176;2023-01-19T02:52:52;34.00;;;25.87;;
8881;SDS011;4477;48.736;9.176;2023-01-19T02:55:24;36.13;;;26.60;;
8881;SDS011;4477;48.736;9.176;2023-01-19T02:57:57;33.33;;;27.50;;
8881;SDS011;4477;48.736;9.176;2023-01-19T03:00:32;30.80;;;26.13;;
8881;SDS011;4477;48.736;9.176;2023-01-19T03:03:11;29.90;;;25.27;;
8881;SDS011;4477;48.736;9.176;2023-01-19T03:05:51;30.93;;;25.37;;
8881;SDS011;4477;48.736;9.176;2023-01-19T03:08:28;29.27;;;24.80;;
8881;SDS011;4477;48.736;9.176;2023-01-19T03:11:00;31.07;;;25.00;;
8881;SDS011;4477;48.736;9.176;2023-01-19T03:13:32;32.57;;;24.67;;
8881;SDS011;4477;48.736;9.176;2023-01-19T03:16:10;29.60;;;24.63;;
8881;SDS011;4477;48.736;9.176;2023-01-19T03:18:41;30.03;;;24.20;;
8881;SDS011;4477;48.736;9.176;2023-01-19T03:21:12;28.97;;;23.60;;
8881;SDS011;4477;48.736;9.176;2023-01-19T03:23:40;27.77;;;23.00;;
8881;SDS011;4477;48.736;9.176;2023-01-19T03:26:12;30.73;;;23.20;;
8881;SDS011;4477;48.736;9.176;2023-01-19T03:28:43;28.27;;;22.90;;
8881;SDS011;4477;48.736;9.176;2023-01-19T03:31:12;27.60;;;22.10;;
8881;SDS011;4477;48.736;9.176;2023-01-19T03:33:42;29.37;;;22.40;;
8881;SDS011;4477;48.736;9.176;2023-01-19T03:36:15;27.83;;;21.77;;
8881;SDS011;4477;48.736;9.176;2023-01-19T03:38:46;27.60;;;23.20;;
8881;SDS011;4477;48.736;9.176;2023-01-19T03:41:14;28.27;;;21.90;;
8881;SDS011;4477;48.736;9.176;2023-01-19T03:43:46;25.40;;;21.10;;
8881;SDS011;4477;48.736;9.176;2023-01-19T03:46:16;27.53;;;21.97;;
8881;SDS011;4477;48.736;9.176;2023-01-19T03:48:44;28.43;;;22.20;;
8881;SDS011;4477;48.736;9.176;2023-01-19T03:51:11;23.70;;;20.57;;
8881;SDS011;4477;48.736;9.176;2023-01-19T03:53:39;25.30;;;19.67;;
8881;SDS011;4477;48.736;9.176;2023-01-19T03:56:07;29.57;;;20.57;;
8881;SDS011;4477;48.736;9.176;2023-01-19T03:58:42;25.40;;;21.13;;
8881;SDS011;4477;48.736;9.176;2023-01-19T04:01:10;28.57;;;22.33;;
8881;SDS011;4477;48.736;9.176;2023-01-19T04:03:38;25.60;;;21.07;;
8881;SDS011;4477;48.736;9.176;2023-01-19T04:06:05;25.13;;;21.30;;
8881;SDS011;4477;48.736;9.176;2023-01-19T04:08:32;25.03;;;20.50;;
8881;SDS011;4477;48.736;9.176;2023-01-19T04:10:59;25.03;;;20.87;;
8881;SDS011;4477;48.736;9.176;2023-01-19T04:13:26;26.77;;;21.10;;
8881;SDS011;4477;48.736;9.176;2023-01-19T04:15:54;23.53;;;20.03;;
8881;SDS011;4477;48.736;9.176;2023-01-19T04:18:22;26.27;;;21.80;;
8881;SDS011;4477;48.736;9.176;2023-01-19T04:20:49;32.03;;;23.40;;
8881;SDS011;4477;48.736;9.176;2023-01-19T04:23:15;29.63;;;23.60;;
8881;SDS011;4477;48.736;9.176;2023-01-19T04:25:42;28.93;;;23.60;;
8881;SDS011;4477;48.736;9.176;2023-01-19T04:28:09;31.00;;;24.90;;
8881;SDS011;4477;48.736;9.176;2023-01-19T04:30:36;29.60;;;24.60;;
8881;SDS011;4477;48.736;9.176;2023-01-19T04:33:03;31.93;;;24.17;;
8881;SDS011;4477;48.736;9.176;2023-01-19T04:35:31;31.57;;;24.30;;
8881;SDS011;4477;48.736;9.176;2023-01-19T04:37:59;31.50;;;24.47;;
8881;SDS011;4477;48.736;9.176;2023-01-19T04:40:25;32.37;;;24.83;;
8881;SDS011;4477;48.736;9.176;2023-01-19T04:42:52;29.17;;;23.80;;
8881;SDS011;4477;48.736;9.176;2023-01-19T04:45:19;31.87;;;25.20;;
8881;SDS011;4477;48.736;9.176;2023-01-19T04:47:46;31.77;;;25.07;;
8881;SDS011;4477;48.736;9.176;2023-01-19T04:50:13;30.07;;;24.13;;
8881;SDS011;4477;48.736;9.176;2023-01-19T04:52:41;31.23;;;25.17;;
8881;SDS011;4477;48.736;9.176;2023-01-19T04:55:08;31.63;;;24.63;;
8881;SDS011;4477;48.736;9.176;2023-01-19T04:57:35;32.43;;;25.60;;
8881;SDS011;4477;48.736;9.176;2023-01-19T05:00:02;29.77;;;23.70;;
8881;SDS011;4477;48.736;9.176;2023-01-19T05:02:30;30.67;;;24.17;;
8881;SDS011;4477;48.736;9.176;2023-01-19T05:04:58;32.90;;;24.53;;
8881;SDS011;4477;48.736;9.176;2023-01-19T05:07:25;32.07;;;24.57;;
8881;SDS011;4477;48.736;9.176;2023-01-19T05:09:53;30.07;;;24.93;;
8881;SDS011;4477;48.736;9.176;2023-01-19T05:12:20;31.87;;;24.37;;
8881;SDS011;4477;48.736;9.176;2023-01-19T05:14:47;26.53;;;23.10;;
8881;SDS011;4477;48.736;9.176;2023-01-19T05:17:13;30.30;;;25.23;;
8881;SDS011;4477;48.736;9.176;2023-01-19T05:19:40;30.37;;;24.57;;
8881;SDS011;4477;48.736;9.176;2023-01-19T05:22:07;29.50;;;23.90;;
8881;SDS011;4477;48.736;9.176;2023-01-19T05:24:34;31.67;;;24.17;;
8881;SDS011;4477;48.736;9.176;2023-01-19T05:27:02;29.47;;;22.93;;
8881;SDS011;4477;48.736;9.176;2023-01-19T05:29:29;28.33;;;23.23;;
8881;SDS011;4477;48.736;9.176;2023-01-19T05:31:56;28.67;;;23.10;;
8881;SDS011;4477;48.736;9.176;2023-01-19T05:34:23;26.77;;;21.60;;
8881;SDS011;4477;48.736;9.176;2023-01-19T05:36:50;29.13;;;22.63;;
8881;SDS011;4477;48.736;9.176;2023-01-19T05:39:16;29.93;;;23.80;;
8881;SDS011;4477;48.736;9.176;2023-01-19T05:41:43;28.63;;;23.17;;
8881;SDS011;4477;48.736;9.176;2023-01-19T05:44:12;28.10;;;23.40;;
8881;SDS011;4477;48.736;9.176;2023-01-19T05:46:39;29.77;;;23.17;;
8881;SDS011;4477;48.736;9.176;2023-01-19T05:49:06;29.40;;;23.23;;
8881;SDS011;4477;48.736;9.176;2023-01-19T05:51:33;28.43;;;23.37;;
8881;SDS011;4477;48.736;9.176;2023-01-19T05:54:02;29.80;;;22.90;;
8881;SDS011;4477;48.736;9.176;2023-01-19T05:56:29;28.10;;;23.37;;
8881;SDS011;4477;48.736;9.176;2023-01-19T05:58:56;28.23;;;21.60;;
8881;SDS011;4477;48.736;9.176;2023-01-19T06:01:25;31.73;;;22.80;;
8881;SDS011;4477;48.736;9.176;2023-01-19T06:03:51;29.70;;;22.77;;
8881;SDS011;4477;48.736;9.176;2023-01-19T06:06:18;27.33;;;20.73;;
8881;SDS011;4477;48.736;9.176;2023-01-19T06:08:45;28.17;;;21.57;;
8881;SDS011;4477;48.736;9.176;2023-01-19T06:11:12;24.43;;;20.77;;
8881;SDS011;4477;48.736;9.176;2023-01-19T06:13:39;24.50;;;20.60;;
8881;SDS011;4477;48.736;9.176;2023-01-19T06:16:06;26.37;;;21.97;;
8881;SDS011;4477;48.736;9.176;2023-01-19T06:18:35;27.63;;;21.77;;
8881;SDS011;4477;48.736;9.176;2023-01-19T06:21:03;27.63;;;21.50;;
8881;SDS011;4477;48.736;9.176;2023-01-19T06:23:31;27.23;;;20.73;;
8881;SDS011;4477;48.736;9.176;2023-01-19T06:25:59;25.17;;;20.87;;
8881;SDS011;4477;48.736;9.176;2023-01-19T06:28:26;28.10;;;21.40;;
8881;SDS011;4477;48.736;9.176;2023-01-19T06:30:53;29.10;;;22.03;;
8881;SDS011;4477;48.736;9.176;2023-01-19T06:33:21;25.53;;;21.83;;
8881;SDS011;4477;48.736;9.176;2023-01-19T06:35:50;28.00;;;21.17;;
8881;SDS011;4477;48.736;9.176;2023-01-19T06:38:17;24.73;;;21.43;;
8881;SDS011;4477;48.736;9.176;2023-01-19T06:40:44;25.73;;;21.00;;
8881;SDS011;4477;48.736;9.176;2023-01-19T06:43:16;26.10;;;20.73;;
8881;SDS011;4477;48.736;9.176;2023-01-19T06:45:44;21.93;;;19.17;;
8881;SDS011;4477;48.736;9.176;2023-01-19T06:48:11;24.83;;;19.17;;
8881;SDS011;4477;48.736;9.176;2023-01-19T06:50:38;20.63;;;18.37;;
8881;SDS011;4477;48.736;9.176;2023-01-19T06:53:06;23.50;;;18.70;;
8881;SDS011;4477;48.736;9.176;2023-01-19T06:55:33;24.37;;;18.77;;
8881;SDS011;4477;48.736;9.176;2023-01-19T06:58:01;21.87;;;17.97;;
8881;SDS011;4477;48.736;9.176;2023-01-19T07:00:28;21.17;;;17.77;;
8881;SDS011;4477;48.736;9.176;2023-01-19T07:02:55;25.27;;;18.67;;
8881;SDS011;4477;48.736;9.176;2023-01-19T07:05:22;25.33;;;21.43;;
8881;SDS011;4477;48.736;9.176;2023-01-19T07:07:52;24.87;;;22.03;;
8881;SDS011;4477;48.736;9.176;2023-01-19T07:10:20;37.07;;;32.87;;
8881;SDS011;4477;48.736;9.176;2023-01-19T07:12:48;34.43;;;29.10;;
8881;SDS011;4477;48.736;9.176;2023-01-19T07:15:15;28.60;;;23.13;;
8881;SDS011;4477;48.736;9.176;2023-01-19T07:17:43;23.90;;;19.70;;
8881;SDS011;4477;48.736;9.176;2023-01-19T07:20:10;28.20;;;22.07;;
8881;SDS011;4477;48.736;9.176;2023-01-19T07:22:39;26.13;;;20.43;;
8881;SDS011;4477;48.736;9.176;2023-01-19T07:25:07;26.00;;;20.93;;
8881;SDS011;4477;48.736;9.176;2023-01-19T07:27:36;27.30;;;20.63;;
8881;SDS011;4477;48.736;9.176;2023-01-19T07:30:04;25.23;;;19.90;;
8881;SDS011;4477;48.736;9.176;2023-01-19T07:32:32;24.10;;;18.60;;
8881;SDS011;4477;48.736;9.176;2023-01-19T07:34:59;20.80;;;17.10;;
8881;SDS011;4477;48.736;9.176;2023-01-19T07:37:26;22.57;;;17.13;;
8881;SDS011;4477;48.736;9.176;2023-01-19T07:39:53;22.37;;;16.90;;
8881;SDS011;4477;48.736;9.176;2023-01-19T07:42:20;20.87;;;16.57;;
8881;SDS011;4477;48.736;9.176;2023-01-19T07:44:48;21.03;;;16.97;;
8881;SDS011;4477;48.736;9.176;2023-01-19T07:47:15;22.53;;;17.43;;
8881;SDS011;4477;48.736;9.176;2023-01-19T07:49:42;22.37;;;17.40;;
8881;SDS011;4477;48.736;9.176;2023-01-19T07:52:08;19.90;;;17.37;;
8881;SDS011;4477;48.736;9.176;2023-01-19T07:54:35;20.03;;;16.37;;
8881;SDS011;4477;48.736;9.176;2023-01-19T07:57:03;20.40;;;16.50;;
8881;SDS011;4477;48.736;9.176;2023-01-19T07:59:29;15.03;;;12.30;;
8881;SDS011;4477;48.736;9.176;2023-01-19T08:01:58;19.60;;;16.43;;
8881;SDS011;4477;48.736;9.176;2023-01-19T08:04:24;19.47;;;16.47;;
8881;SDS011;4477;48.736;9.176;2023-01-19T08:06:51;18.70;;;15.23;;
8881;SDS011;4477;48.736;9.176;2023-01-19T08:09:19;18.97;;;15.33;;
8881;SDS011;4477;48.736;9.176;2023-01-19T08:11:46;18.87;;;14.20;;
8881;SDS011;4477;48.736;9.176;2023-01-19T08:14:12;19.33;;;13.00;;
8881;SDS011;4477;48.736;9.176;2023-01-19T08:16:39;15.07;;;12.57;;
8881;SDS011;4477;48.736;9.176;2023-01-19T08:19:07;14.13;;;12.63;;
8881;SDS011;4477;48.736;9.176;2023-01-19T08:21:34;13.43;;;12.03;;
8881;SDS011;4477;48.736;9.176;2023-01-19T08:24:02;15.13;;;11.90;;
8881;SDS011;4477;48.736;9.176;2023-01-19T08:26:30;13.10;;;11.43;;
8881;SDS011;4477;48.736;9.176;2023-01-19T08:28:59;11.90;;;10.70;;
8881;SDS011;4477;48.736;9.176;2023-01-19T08:31:27;12.00;;;10.73;;
8881;SDS011;4477;48.736;9.176;2023-01-19T08:33:54;12.70;;;11.40;;
8881;SDS011;4477;48.736;9.176;2023-01-19T08:36:22;12.40;;;10.73;;
8881;SDS011;4477;48.736;9.176;2023-01-19T08:38:49;13.73;;;11.63;;
8881;SDS011;4477;48.736;9.176;2023-01-19T08:41:16;12.83;;;11.40;;
8881;SDS011;4477;48.736;9.176;2023-01-19T08:43:43;12.80;;;10.73;;
8881;SDS011;4477;48.736;9.176;2023-01-19T08:46:10;21.63;;;12.60;;
8881;SDS011;4477;48.736;9.176;2023-01-19T08:48:40;12.77;;;11.30;;
8881;SDS011;4477;48.736;9.176;2023-01-19T08:51:09;13.27;;;11.60;;
8881;SDS011;4477;48.736;9.176;2023-01-19T08:53:38;12.27;;;10.97;;
8881;SDS011;4477;48.736;9.176;2023-01-19T08:56:05;11.87;;;10.73;;
8881;SDS011;4477;48.736;9.176;2023-01-19T08:58:36;11.73;;;10.53;;
8881;SDS011;4477;48.736;9.176;2023-01-19T09:01:03;13.03;;;11.63;;
8881;SDS011;4477;48.736;9.176;2023-01-19T09:03:31;11.50;;;10.30;;
8881;SDS011;4477;48.736;9.176;2023-01-19T09:05:57;13.27;;;10.60;;
8881;SDS011;4477;48.736;9.176;2023-01-19T09:08:24;11.60;;;10.40;;
8881;SDS011;4477;48.736;9.176;2023-01-19T09:10:53;10.53;;;8.80;;
8881;SDS011;4477;48.736;9.176;2023-01-19T09:13:20;12.77;;;9.67;;
8881;SDS011;4477;48.736;9.176;2023-01-19T09:15:46;11.93;;;9.43;;
8881;SDS011;4477;48.736;9.176;2023-01-19T09:18:15;13.50;;;9.40;;
8881;SDS011;4477;48.736;9.176;2023-01-19T09:20:43;10.60;;;8.90;;
8881;SDS011;4477;48.736;9.176;2023-01-19T09:23:12;10.43;;;9.00;;
8881;SDS011;4477;48.736;9.176;2023-01-19T09:25:40;10.67;;;9.17;;
8881;SDS011;4477;48.736;9.176;2023-01-19T09:28:10;10.20;;;8.90;;
8881;SDS011;4477;48.736;9.176;2023-01-19T09:30:38;9.20;;;8.03;;
8881;SDS011;4477;48.736;9.176;2023-01-19T09:33:07;10.07;;;8.27;;
8881;SDS011;4477;48.736;9.176;2023-01-19T09:35:35;9.27;;;8.27;;
8881;SDS011;4477;48.736;9.176;2023-01-19T09:38:02;11.77;;;8.60;;
8881;SDS011;4477;48.736;9.176;2023-01-19T09:40:29;9.17;;;7.43;;
8881;SDS011;4477;48.736;9.176;2023-01-19T09:42:58;14.53;;;8.13;;
8881;SDS011;4477;48.736;9.176;2023-01-19T09:45:41;9.67;;;8.23;;
8881;SDS011;4477;48.736;9.176;2023-01-19T09:48:18;9.27;;;8.00;;
8881;SDS011;4477;48.736;9.176;2023-01-19T09:50:51;8.67;;;7.77;;
8881;SDS011;4477;48.736;9.176;2023-01-19T09:53:23;11.50;;;8.83;;
8881;SDS011;4477;48.736;9.176;2023-01-19T09:56:00;9.67;;;7.93;;
8881;SDS011;4477;48.736;9.176;2023-01-19T09:58:26;9.93;;;7.63;;
8881;SDS011;4477;48.736;9.176;2023-01-19T10:00:56;10.00;;;8.03;;
8881;SDS011;4477;48.736;9.176;2023-01-19T10:03:30;8.20;;;7.40;;
8881;SDS011;4477;48.736;9.176;2023-01-19T10:06:02;8.33;;;6.57;;
8881;SDS011;4477;48.736;9.176;2023-01-19T10:08:32;8.30;;;6.60;;
8881;SDS011;4477;48.736;9.176;2023-01-19T10:11:08;8.97;;;7.17;;
8881;SDS011;4477;48.736;9.176;2023-01-19T10:13:47;10.27;;;7.87;;
8881;SDS011;4477;48.736;9.176;2023-01-19T10:16:21;8.60;;;7.77;;
8881;SDS011;4477;48.736;9.176;2023-01-19T10:18:56;11.10;;;9.10;;
8881;SDS011;4477;48.736;9.176;2023-01-19T10:21:28;9.43;;;8.40;;
8881;SDS011;4477;48.736;9.176;2023-01-19T10:24:00;9.73;;;7.50;;
8881;SDS011;4477;48.736;9.176;2023-01-19T10:26:31;8.13;;;7.33;;
8881;SDS011;4477;48.736;9.176;2023-01-19T10:29:01;10.20;;;8.10;;
8881;SDS011;4477;48.736;9.176;2023-01-19T10:31:32;8.67;;;7.87;;
8881;SDS011;4477;48.736;9.176;2023-01-19T10:34:00;8.67;;;6.97;;
8881;SDS011;4477;48.736;9.176;2023-01-19T10:36:32;8.00;;;6.97;;
8881;SDS011;4477;48.736;9.176;2023-01-19T10:39:01;7.50;;;6.70;;
8881;SDS011;4477;48.736;9.176;2023-01-19T10:41:30;8.47;;;7.10;;
8881;SDS011;4477;48.736;9.176;2023-01-19T10:44:05;7.37;;;6.67;;
8881;SDS011;4477;48.736;9.176;2023-01-19T10:46:37;7.80;;;6.93;;
8881;SDS011;4477;48.736;9.176;2023-01-19T10:49:20;9.27;;;7.40;;
8881;SDS011;4477;48.736;9.176;2023-01-19T10:51:50;9.30;;;6.83;;
8881;SDS011;4477;48.736;9.176;2023-01-19T10:54:18;8.77;;;6.70;;
8881;SDS011;4477;48.736;9.176;2023-01-19T10:56:49;9.13;;;7.63;;
8881;SDS011;4477;48.736;9.176;2023-01-19T10:59:31;10.47;;;6.50;;
8881;SDS011;4477;48.736;9.176;2023-01-19T11:02:12;8.50;;;6.63;;
8881;SDS011;4477;48.736;9.176;2023-01-19T11:04:42;9.30;;;7.20;;
8881;SDS011;4477;48.736;9.176;2023-01-19T11:07:14;7.37;;;6.57;;
8881;SDS011;4477;48.736;9.176;2023-01-19T11:09:45;9.07;;;6.87;;
8881;SDS011;4477;48.736;9.176;2023-01-19T11:12:19;7.60;;;6.73;;
8881;SDS011;4477;48.736;9.176;2023-01-19T11:14:48;7.93;;;6.77;;
8881;SDS011;4477;48.736;9.176;2023-01-19T11:17:19;9.10;;;6.80;;
8881;SDS011;4477;48.736;9.176;2023-01-19T11:19:52;7.90;;;6.80;;
8881;SDS011;4477;48.736;9.176;2023-01-19T11:22:24;8.03;;;6.60;;
8881;SDS011;4477;48.736;9.176;2023-01-19T11:25:01;7.00;;;6.30;;
8881;SDS011;4477;48.736;9.176;2023-01-19T11:27:31;8.73;;;7.33;;
8881;SDS011;4477;48.736;9.176;2023-01-19T11:30:02;8.07;;;6.60;;
8881;SDS011;4477;48.736;9.176;2023-01-19T11:32:35;10.40;;;7.40;;
8881;SDS011;4477;48.736;9.176;2023-01-19T11:38:03;11.73;;;8.67;;
8881;SDS011;4477;48.736;9.176;2023-01-19T11:40:32;8.60;;;7.70;;
8881;SDS011;4477;48.736;9.176;2023-01-19T11:43:00;8.50;;;6.77;;
8881;SDS011;4477;48.736;9.176;2023-01-19T11:45:27;8.73;;;6.90;;
8881;SDS011;4477;48.736;9.176;2023-01-19T11:47:58;8.03;;;5.93;;
8881;SDS011;4477;48.736;9.176;2023-01-19T11:50:30;8.47;;;7.23;;
8881;SDS011;4477;48.736;9.176;2023-01-19T11:53:05;13.63;;;11.10;;
8881;SDS011;4477;48.736;9.176;2023-01-19T11:55:38;8.90;;;7.97;;
8881;SDS011;4477;48.736;9.176;2023-01-19T11:58:12;17.03;;;12.57;;
8881;SDS011;4477;48.736;9.176;2023-01-19T12:00:41;6.80;;;5.87;;
8881;SDS011;4477;48.736;9.176;2023-01-19T12:03:13;5.73;;;5.13;;
8881;SDS011;4477;48.736;9.176;2023-01-19T12:05:44;11.27;;;8.57;;
8881;SDS011;4477;48.736;9.176;2023-01-19T12:08:14;11.20;;;8.30;;
8881;SDS011;4477;48.736;9.176;2023-01-19T12:10:45;12.93;;;10.13;;
8881;SDS011;4477;48.736;9.176;2023-01-19T12:13:16;9.43;;;7.17;;
8881;SDS011;4477;48.736;9.176;2023-01-19T12:15:45;17.67;;;11.50;;
8881;SDS011;4477;48.736;9.176;2023-01-19T12:18:17;16.93;;;11.23;;
8881;SDS011;4477;48.736;9.176;2023-01-19T12:20:47;13.73;;;9.90;;
8881;SDS011;4477;48.736;9.176;2023-01-19T12:23:20;12.77;;;11.00;;
8881;SDS011;4477;48.736;9.176;2023-01-19T12:26:02;7.63;;;6.63;;
8881;SDS011;4477;48.736;9.176;2023-01-19T12:28:39;7.90;;;6.83;;
8881;SDS011;4477;48.736;9.176;2023-01-19T12:31:09;9.17;;;6.23;;
8881;SDS011;4477;48.736;9.176;2023-01-19T12:33:42;6.87;;;6.27;;
8881;SDS011;4477;48.736;9.176;2023-01-19T12:36:09;8.50;;;6.60;;
8881;SDS011;4477;48.736;9.176;2023-01-19T12:39:01;9.13;;;7.13;;
8881;SDS011;4477;48.736;9.176;2023-01-19T12:41:29;7.93;;;6.90;;
8881;SDS011;4477;48.736;9.176;2023-01-19T12:46:53;6.83;;;6.23;;
8881;SDS011;4477;48.736;9.176;2023-01-19T12:49:27;9.57;;;7.57;;
8881;SDS011;4477;48.736;9.176;2023-01-19T12:52:10;8.37;;;6.60;;
8881;SDS011;4477;48.736;9.176;2023-01-19T12:54:58;8.50;;;6.50;;
8881;SDS011;4477;48.736;9.176;2023-01-19T12:57:29;7.53;;;6.60;;
8881;SDS011;4477;48.736;9.176;2023-01-19T12:59:59;8.67;;;6.07;;
8881;SDS011;4477;48.736;9.176;2023-01-19T13:05:23;8.70;;;6.50;;
8881;SDS011;4477;48.736;9.176;2023-01-19T13:08:18;8.73;;;7.20;;
8881;SDS011;4477;48.736;9.176;2023-01-19T13:13:40;7.93;;;6.80;;
8881;SDS011;4477;48.736;9.176;2023-01-19T13:19:33;7.30;;;6.50;;
8881;SDS011;4477;48.736;9.176;2023-01-19T13:25:29;8.93;;;7.07;;
8881;SDS011;4477;48.736;9.176;2023-01-19T13:28:34;7.63;;;6.83;;
8881;SDS011;4477;48.736;9.176;2023-01-19T13:31:05;9.90;;;6.57;;
8881;SDS011;4477;48.736;9.176;2023-01-19T13:36:21;8.07;;;6.50;;
8881;SDS011;4477;48.736;9.176;2023-01-19T13:38:52;9.10;;;6.50;;
8881;SDS011;4477;48.736;9.176;2023-01-19T13:41:21;6.77;;;6.13;;
8881;SDS011;4477;48.736;9.176;2023-01-19T13:43:53;9.23;;;6.33;;
8881;SDS011;4477;48.736;9.176;2023-01-19T13:46:25;7.77;;;6.43;;
8881;SDS011;4477;48.736;9.176;2023-01-19T13:48:54;8.87;;;6.30;;
8881;SDS011;4477;48.736;9.176;2023-01-19T13:51:23;12.70;;;6.57;;
8881;SDS011;4477;48.736;9.176;2023-01-19T13:53:53;9.53;;;7.00;;
8881;SDS011;4477;48.736;9.176;2023-01-19T13:56:22;7.27;;;6.57;;
8881;SDS011;4477;48.736;9.176;2023-01-19T13:58:58;6.67;;;5.90;;
8881;SDS011;4477;48.736;9.176;2023-01-19T14:01:33;8.73;;;6.53;;
8881;SDS011;4477;48.736;9.176;2023-01-19T14:04:01;10.13;;;8.13;;
8881;SDS011;4477;48.736;9.176;2023-01-19T14:06:33;9.37;;;8.20;;
8881;SDS011;4477;48.736;9.176;2023-01-19T14:09:13;7.60;;;6.80;;
8881;SDS011;4477;48.736;9.176;2023-01-19T14:11:41;9.03;;;7.50;;
8881;SDS011;4477;48.736;9.176;2023-01-19T14:14:24;10.63;;;8.17;;
8881;SDS011;4477;48.736;9.176;2023-01-19T14:16:52;8.57;;;7.17;;
8881;SDS011;4477;48.736;9.176;2023-01-19T14:19:19;14.87;;;8.57;;
8881;SDS011;4477;48.736;9.176;2023-01-19T14:21:46;8.90;;;7.73;;
8881;SDS011;4477;48.736;9.176;2023-01-19T14:24:23;9.43;;;7.77;;
8881;SDS011;4477;48.736;9.176;2023-01-19T14:26:53;8.83;;;7.60;;
8881;SDS011;4477;48.736;9.176;2023-01-19T14:29:35;11.30;;;9.53;;
8881;SDS011;4477;48.736;9.176;2023-01-19T14:32:10;10.03;;;8.80;;
8881;SDS011;4477;48.736;9.176;2023-01-19T14:34:39;9.90;;;6.53;;
8881;SDS011;4477;48.736;9.176;2023-01-19T14:37:18;7.30;;;6.03;;
8881;SDS011;4477;48.736;9.176;2023-01-19T14:39:50;7.80;;;6.93;;
8881;SDS011;4477;48.736;9.176;2023-01-19T14:42:20;7.23;;;6.10;;
8881;SDS011;4477;48.736;9.176;2023-01-19T14:44:51;7.20;;;6.50;;
8881;SDS011;4477;48.736;9.176;2023-01-19T14:47:21;11.17;;;7.70;;
8881;SDS011;4477;48.736;9.176;2023-01-19T14:49:53;17.03;;;11.93;;
8881;SDS011;4477;48.736;9.176;2023-01-19T14:52:24;16.80;;;12.50;;
8881;SDS011;4477;48.736;9.176;2023-01-19T14:54:53;12.83;;;10.20;;
8881;SDS011;4477;48.736;9.176;2023-01-19T14:57:21;8.70;;;7.10;;
8881;SDS011;4477;48.736;9.176;2023-01-19T14:59:48;9.20;;;7.33;;
8881;SDS011;4477;48.736;9.176;2023-01-19T15:02:17;8.67;;;7.70;;
8881;SDS011;4477;48.736;9.176;2023-01-19T15:04:44;7.83;;;6.60;;
8881;SDS011;4477;48.736;9.176;2023-01-19T15:07:13;6.33;;;5.73;;
8881;SDS011;4477;48.736;9.176;2023-01-19T15:09:43;6.43;;;5.80;;
8881;SDS011;4477;48.736;9.176;2023-01-19T15:12:10;6.97;;;6.27;;
8881;SDS011;4477;48.736;9.176;2023-01-19T15:14:40;8.07;;;6.23;;
8881;SDS011;4477;48.736;9.176;2023-01-19T15:17:10;7.33;;;6.07;;
8881;SDS011;4477;48.736;9.176;2023-01-19T15:19:41;8.60;;;6.30;;
8881;SDS011;4477;48.736;9.176;2023-01-19T15:22:09;6.87;;;6.10;;
8881;SDS011;4477;48.736;9.176;2023-01-19T15:24:37;7.70;;;6.53;;
8881;SDS011;4477;48.736;9.176;2023-01-19T15:27:07;9.00;;;7.17;;
8881;SDS011;4477;48.736;9.176;2023-01-19T15:29:35;10.43;;;7.20;;
8881;SDS011;4477;48.736;9.176;2023-01-19T15:32:02;7.60;;;6.20;;
8881;SDS011;4477;48.736;9.176;2023-01-19T15:34:30;9.87;;;7.50;;